Time;durP1;ratioP1;P1;durP2;ratioP2;P2;SDS_P1;SDS_P2;PMS_P1;PMS_P2;Temp;Humidity;BMP_temperature;BMP_pressure;BME280_temperature;BME280_humidity;BME280_pressure;Samples;Min_cycle;Max_cycle;Signal;HPM_P1;HPM_P2
2020/12/23 00:01:01;;;;;;;0.60;0.60;;;;;;;13.13;78.14;97925.97;8337054;28;20208;-79
2020/12/23 00:05:06;;;;;;;1.23;0.60;;;;;;;13.17;77.69;97924.88;8336294;28;20207;-78
2020/12/23 00:09:08;;;;;;;1.13;0.53;;;;;;;13.18;77.74;97910.97;8336729;28;20291;-79
2020/12/23 00:13:10;;;;;;;2.33;0.70;;;;;;;13.21;77.84;97905.59;8335454;28;20243;-78
2020/12/23 00:17:12;;;;;;;1.43;0.67;;;;;;;13.14;77.98;97912.06;8336004;28;20742;-79
2020/12/23 00:21:14;;;;;;;1.23;0.70;;;;;;;13.22;77.86;97923.72;8336452;28;20258;-79
2020/12/23 00:25:16;;;;;;;2.05;0.85;;;;;;;13.54;76.39;97922.88;8335323;28;20517;-79
2020/12/23 00:29:20;;;;;;;1.87;0.80;;;;;;;13.23;77.62;97920.19;8338617;28;20224;-79
2020/12/23 00:33:21;;;;;;;0.73;0.60;;;;;;;13.25;77.59;97912.28;8343770;28;20236;-79
2020/12/23 00:37:24;;;;;;;0.70;0.60;;;;;;;13.25;77.20;97910.56;8344134;28;20569;-80
2020/12/23 00:41:25;;;;;;;0.73;0.60;;;;;;;13.22;77.50;97918.50;8343885;28;20200;-79
2020/12/23 00:45:28;;;;;;;0.70;0.70;;;;;;;13.18;77.70;97913.56;8342815;28;20211;-79
2020/12/23 00:49:30;;;;;;;3.17;0.90;;;;;;;13.15;77.76;97924.97;8342732;28;20314;-79
2020/12/23 00:53:31;;;;;;;1.43;0.80;;;;;;;13.24;77.62;97923.63;8343116;28;20566;-79
2020/12/23 00:57:33;;;;;;;1.73;0.70;;;;;;;13.29;77.66;97912.03;8343378;28;20201;-79
2020/12/23 01:01:36;;;;;;;0.70;0.70;;;;;;;13.27;77.31;97926.06;8342723;28;20220;-79
2020/12/23 01:05:38;;;;;;;0.90;0.70;;;;;;;13.26;77.33;97925.22;8343254;28;20213;-79
2020/12/23 01:09:39;;;;;;;1.47;0.90;;;;;;;13.26;77.45;97926.97;8342821;28;20201;-79
2020/12/23 01:13:41;;;;;;;2.00;0.70;;;;;;;13.24;77.57;97921.03;8343567;28;20644;-79
2020/12/23 01:17:44;;;;;;;1.43;0.60;;;;;;;13.30;77.17;97928.50;8343685;28;20204;-79
2020/12/23 01:21:46;;;;;;;1.43;0.67;;;;;;;13.33;76.87;97932.69;8341291;28;20215;-79
2020/12/23 01:25:51;;;;;;;0.70;0.63;;;;;;;13.36;76.56;97919.53;8341639;28;20203;-79
2020/12/23 01:29:52;;;;;;;0.57;0.57;;;;;;;13.32;76.88;97923.22;8342301;28;20207;-79
2020/12/23 01:33:55;;;;;;;0.70;0.60;;;;;;;13.27;77.04;97924.31;8341340;28;20200;-79
2020/12/23 01:37:56;;;;;;;1.23;0.70;;;;;;;13.41;77.00;97933.13;8340749;28;20204;-79
2020/12/23 01:41:59;;;;;;;2.47;0.70;;;;;;;13.35;76.69;97923.91;8340192;28;20227;-79
2020/12/23 01:46:01;;;;;;;1.50;0.70;;;;;;;13.41;76.74;97914.91;8340007;28;20200;-79
2020/12/23 01:50:04;;;;;;;2.00;0.70;;;;;;;13.46;76.43;97912.88;8333557;28;20200;-79
2020/12/23 01:54:12;;;;;;;0.87;0.63;;;;;;;13.42;76.11;97901.81;8333838;28;20254;-77
2020/12/23 01:58:15;;;;;;;1.37;0.80;;;;;;;13.42;76.40;97899.22;8332987;28;20201;-77
2020/12/23 02:02:28;;;;;;;1.07;0.80;;;;;;;13.41;76.28;97899.31;8334622;28;20215;-77
2020/12/23 02:06:32;;;;;;;1.80;0.77;;;;;;;13.46;76.21;97898.13;8334190;28;20202;-77
2020/12/23 02:10:34;;;;;;;2.00;0.80;;;;;;;13.67;75.13;97882.22;8333278;28;20442;-79
2020/12/23 02:14:36;;;;;;;0.80;0.80;;;;;;;13.53;75.89;97896.00;8334915;28;20236;-79
2020/12/23 02:18:39;;;;;;;1.97;0.80;;;;;;;13.48;76.09;97900.63;8334564;28;20201;-78
2020/12/23 02:22:57;;;;;;;1.33;0.70;;;;;;;13.46;76.03;97898.13;8335007;28;20250;-79
2020/12/23 02:26:58;;;;;;;2.23;0.87;;;;;;;13.43;75.78;97895.69;8334154;28;20208;-79
2020/12/23 02:31:04;;;;;;;1.20;0.70;;;;;;;13.42;75.75;97893.16;8334284;28;20255;-79
2020/12/23 02:35:07;;;;;;;1.70;1.03;;;;;;;13.47;75.57;97893.75;8336338;28;20593;-79
2020/12/23 02:39:10;;;;;;;1.33;0.70;;;;;;;13.43;75.79;97889.66;8336360;28;20200;-79
2020/12/23 02:43:11;;;;;;;1.83;0.67;;;;;;;13.43;75.51;97872.28;8336045;28;20212;-79
2020/12/23 02:47:15;;;;;;;0.57;0.57;;;;;;;13.46;75.61;97866.03;8337877;28;20655;-79
2020/12/23 02:51:16;;;;;;;1.33;0.93;;;;;;;13.47;75.40;97868.56;8339630;28;20232;-79
2020/12/23 02:55:19;;;;;;;1.10;0.80;;;;;;;13.41;75.73;97855.09;8336884;28;20196;-79
2020/12/23 02:59:21;;;;;;;0.60;0.60;;;;;;;13.42;75.60;97851.53;8336382;28;20204;-79
2020/12/23 03:03:22;;;;;;;4.07;0.90;;;;;;;13.38;75.28;97852.66;8334399;28;20685;-79
2020/12/23 03:07:24;;;;;;;1.97;0.70;;;;;;;13.24;76.06;97843.84;8335813;28;20211;-79
2020/12/23 03:11:27;;;;;;;2.30;0.63;;;;;;;13.30;75.61;97837.50;8343974;28;20239;-79
2020/12/23 03:15:28;;;;;;;2.83;0.80;;;;;;;13.34;75.82;97844.19;8343009;28;20262;-78
2020/12/23 03:19:30;;;;;;;1.80;0.77;;;;;;;13.30;75.99;97837.50;8342953;28;20200;-78
2020/12/23 03:23:32;;;;;;;0.90;0.60;;;;;;;13.33;75.70;97837.31;8342677;28;20695;-78
2020/12/23 03:27:34;;;;;;;2.30;0.93;;;;;;;13.33;75.73;97837.31;8342454;28;20215;-78
2020/12/23 03:31:36;;;;;;;2.50;0.60;;;;;;;13.37;75.76;97845.78;8343756;28;20230;-79
2020/12/23 03:35:38;;;;;;;0.60;0.60;;;;;;;13.39;75.75;97849.97;8344120;28;20220;-79
2020/12/23 03:39:39;;;;;;;2.87;0.90;;;;;;;13.37;75.55;97844.03;8344425;28;20201;-78
2020/12/23 03:43:43;;;;;;;0.67;0.60;;;;;;;13.40;75.72;97845.59;8343992;28;20251;-78
2020/12/23 03:47:44;;;;;;;2.00;0.60;;;;;;;13.39;75.44;97846.53;8345951;28;20243;-78
2020/12/23 03:51:46;;;;;;;1.07;0.70;;;;;;;13.41;75.58;97842.91;8343655;28;20228;-78
2020/12/23 03:55:49;;;;;;;1.93;0.70;;;;;;;13.33;75.74;97844.25;8343774;28;20212;-79
2020/12/23 03:59:51;;;;;;;3.70;0.70;;;;;;;13.37;75.82;97848.41;8348874;28;20192;-79
2020/12/23 04:03:53;;;;;;;0.97;0.70;;;;;;;13.30;75.61;97838.31;8348574;28;20204;-79
2020/12/23 04:07:55;;;;;;;1.27;0.70;;;;;;;13.32;75.81;97834.81;8348384;28;20197;-79
2020/12/23 04:11:56;;;;;;;2.13;0.60;;;;;;;13.28;75.87;97844.50;8349729;28;20244;-79
2020/12/23 04:15:59;;;;;;;1.43;0.70;;;;;;;13.41;75.85;97853.31;8347054;28;20231;-79
2020/12/23 04:20:01;;;;;;;1.60;0.57;;;;;;;13.33;75.87;97850.31;8342599;28;20644;-78
2020/12/23 04:24:03;;;;;;;1.43;0.70;;;;;;;13.42;76.33;97854.16;8339197;28;20207;-79
2020/12/23 04:28:05;;;;;;;1.33;0.80;;;;;;;13.38;76.63;97852.66;8341967;28;20212;-79
2020/12/23 04:32:07;;;;;;;1.27;0.70;;;;;;;13.38;76.82;97850.88;8341763;28;20236;-79
2020/12/23 04:36:09;;;;;;;0.80;0.70;;;;;;;13.34;77.11;97872.78;8342019;28;20196;-79
2020/12/23 04:40:11;;;;;;;1.10;0.63;;;;;;;13.39;76.85;97854.34;8342186;28;20204;-79
2020/12/23 04:44:14;;;;;;;1.17;0.60;;;;;;;13.34;77.38;97862.38;8340635;28;20196;-79
2020/12/23 04:48:25;;;;;;;2.47;0.60;;;;;;;13.45;76.71;97877.41;8340912;28;20201;-79
2020/12/23 04:52:31;;;;;;;0.90;0.60;;;;;;;13.43;77.23;97861.03;8340303;28;20235;-79
2020/12/23 04:56:34;;;;;;;1.47;0.50;;;;;;;13.41;77.18;97862.88;8340046;28;20193;-80
2020/12/23 05:00:36;;;;;;;1.50;0.60;;;;;;;13.40;77.03;97862.06;8339712;28;20196;-80
2020/12/23 05:04:38;;;;;;;0.50;0.50;;;;;;;13.34;77.23;97866.75;8339820;28;20726;-79
2020/12/23 05:08:40;;;;;;;0.83;0.60;;;;;;;13.38;77.09;97856.09;8338619;28;20701;-79
2020/12/23 05:12:42;;;;;;;1.67;0.80;;;;;;;13.46;76.94;97863.44;8336742;28;20650;-79
2020/12/23 05:16:44;;;;;;;0.83;0.60;;;;;;;13.44;77.05;97875.69;8336747;28;20204;-79
2020/12/23 05:20:47;;;;;;;2.20;0.70;;;;;;;13.48;76.69;97872.03;8339481;28;20204;-80
2020/12/23 05:24:52;;;;;;;1.10;0.67;;;;;;;13.48;76.96;97865.06;8338431;28;20203;-80
2020/12/23 05:28:54;;;;;;;2.70;0.80;;;;;;;13.53;77.43;97858.75;8340095;28;20196;-80
2020/12/23 05:32:56;;;;;;;1.63;0.50;;;;;;;13.48;76.75;97853.81;8339989;28;20216;-80
2020/12/23 05:37:00;;;;;;;0.40;0.40;;;;;;;13.50;76.64;97854.56;8340873;28;20222;-80
2020/12/23 05:41:05;;;;;;;1.40;0.50;;;;;;;13.45;76.73;97862.63;8343175;28;20674;-81
2020/12/23 05:45:07;;;;;;;1.23;0.57;;;;;;;13.47;76.49;97858.16;8341816;28;20200;-81
2020/12/23 05:49:11;;;;;;;1.70;0.60;;;;;;;13.43;76.76;97848.88;8340893;28;20200;-81
2020/12/23 05:53:14;;;;;;;1.30;0.50;;;;;;;13.45;76.72;97854.81;8341807;28;20228;-81
2020/12/23 05:57:16;;;;;;;1.80;0.50;;;;;;;13.43;76.46;97855.84;8342271;28;20263;-81
2020/12/23 06:01:20;;;;;;;1.43;0.60;;;;;;;13.45;76.71;97848.78;8342004;28;20209;-80
2020/12/23 06:05:23;;;;;;;1.00;0.60;;;;;;;13.48;76.04;97851.22;8341591;28;20207;-81
2020/12/23 06:09:33;;;;;;;0.57;0.57;;;;;;;13.46;76.51;97846.09;8340164;28;20606;-81
2020/12/23 06:13:44;;;;;;;2.60;0.60;;;;;;;13.49;75.91;97848.50;8340609;28;20688;-80
2020/12/23 06:17:46;;;;;;;1.53;0.40;;;;;;;13.47;75.96;97860.75;8339842;28;20188;-81
2020/12/23 06:21:50;;;;;;;1.50;0.50;;;;;;;13.41;76.47;97842.09;8340778;28;20207;-81
2020/12/23 06:25:52;;;;;;;3.20;0.63;;;;;;;13.41;76.06;97842.91;8341661;28;20739;-80
2020/12/23 06:29:54;;;;;;;1.53;0.70;;;;;;;13.41;76.16;97834.28;8342222;28;20204;-80
2020/12/23 06:33:58;;;;;;;2.73;0.80;;;;;;;13.36;76.03;97829.31;8343799;28;20228;-80
2020/12/23 06:38:19;;;;;;;0.80;0.80;;;;;;;13.40;75.49;97827.38;8346403;28;20192;-80
2020/12/23 06:42:30;;;;;;;1.70;0.67;;;;;;;13.37;75.47;97824.97;8339694;28;20215;-79
2020/12/23 06:47:05;;;;;;;1.27;0.77;;;;;;;13.38;75.34;97819.66;8339650;28;20644;-80
2020/12/23 06:51:07;;;;;;;1.03;0.70;;;;;;;13.32;75.81;97827.84;8340862;28;20212;-80
2020/12/23 06:55:09;;;;;;;1.63;0.83;;;;;;;13.32;75.54;97834.81;8341242;28;20228;-80
2020/12/23 06:59:48;;;;;;;0.97;0.90;;;;;;;13.31;75.42;97828.78;8340044;28;20240;-81
2020/12/23 07:03:50;;;;;;;1.10;1.00;;;;;;;13.34;75.32;97838.16;8341580;28;20188;-80
2020/12/23 07:07:52;;;;;;;1.90;0.80;;;;;;;13.33;75.44;97841.66;8341017;28;20566;-79
2020/12/23 07:11:54;;;;;;;0.70;0.70;;;;;;;13.31;75.48;97839.19;8340168;28;20244;-80
2020/12/23 07:15:58;;;;;;;1.30;0.70;;;;;;;13.35;75.20;97851.06;8341087;28;20204;-80
2020/12/23 07:20:00;;;;;;;1.33;0.80;;;;;;;13.31;75.28;97862.59;8341942;28;20200;-82
2020/12/23 07:24:02;;;;;;;1.50;0.60;;;;;;;13.29;75.37;97865.22;8340710;28;20203;-81
2020/12/23 07:28:06;;;;;;;0.70;0.67;;;;;;;13.28;74.88;97865.31;8340534;28;20208;-82
2020/12/23 07:32:09;;;;;;;2.13;0.60;;;;;;;13.28;74.87;97840.13;8342837;28;20230;-81
2020/12/23 07:36:12;;;;;;;1.20;0.80;;;;;;;13.29;74.58;97830.59;8343287;28;20200;-82
2020/12/23 07:40:15;;;;;;;1.40;0.80;;;;;;;13.33;74.30;97833.88;8341649;28;20204;-81
2020/12/23 07:44:17;;;;;;;2.03;1.10;;;;;;;13.30;74.49;97832.28;8342714;28;20534;-81
2020/12/23 07:48:21;;;;;;;3.80;1.60;;;;;;;13.32;74.56;97845.22;8343242;28;20209;-81
2020/12/23 07:52:23;;;;;;;3.07;1.30;;;;;;;13.36;74.53;97855.34;8343087;28;20236;-80
2020/12/23 07:56:24;;;;;;;4.07;1.50;;;;;;;13.28;74.92;97863.53;8348473;28;20207;-80
2020/12/23 08:00:26;;;;;;;1.00;0.80;;;;;;;13.22;75.20;97852.66;8357661;28;20554;-79
2020/12/23 08:04:29;;;;;;;1.23;0.93;;;;;;;13.25;75.04;97852.47;8361404;28;20628;-80
2020/12/23 08:08:31;;;;;;;0.80;0.80;;;;;;;13.10;75.67;97843.81;8348369;28;20200;-80
2020/12/23 08:12:32;;;;;;;1.93;1.10;;;;;;;13.17;75.37;97842.50;8347831;28;20244;-80
2020/12/23 08:16:34;;;;;;;1.53;1.43;;;;;;;13.11;75.43;97846.28;8347675;28;20205;-80
2020/12/23 08:20:37;;;;;;;1.83;1.03;;;;;;;13.13;75.20;97859.22;8346317;28;20204;-80
2020/12/23 08:24:39;;;;;;;1.53;1.10;;;;;;;13.20;74.77;97873.56;8345518;28;20240;-80
2020/12/23 08:28:41;;;;;;;7.57;6.87;;;;;;;13.22;74.51;97876.06;8345544;28;20200;-80
2020/12/23 08:32:45;;;;;;;4.27;3.00;;;;;;;13.14;74.79;97884.31;8344257;28;20231;-80
2020/12/23 08:36:52;;;;;;;3.20;1.80;;;;;;;13.14;74.86;97873.06;8346072;28;20215;-80
2020/12/23 08:40:56;;;;;;;3.00;1.80;;;;;;;13.11;74.87;97869.69;8346728;28;20188;-81
2020/12/23 08:44:58;;;;;;;2.03;1.60;;;;;;;13.13;74.77;97872.22;8348369;28;20204;-80
2020/12/23 08:49:00;;;;;;;2.77;1.50;;;;;;;13.19;74.10;97858.03;8347339;28;20200;-80
2020/12/23 08:53:02;;;;;;;1.73;1.10;;;;;;;13.17;74.89;97857.28;8347805;28;20231;-81
2020/12/23 08:57:04;;;;;;;2.80;2.33;;;;;;;13.13;74.68;97851.41;8351623;28;20652;-80
2020/12/23 09:01:06;;;;;;;6.57;3.27;;;;;;;13.18;74.71;97854.59;8347357;28;20231;-80
2020/12/23 09:05:19;;;;;;;3.23;1.67;;;;;;;13.23;74.24;97855.19;8345969;28;20224;-80
2020/12/23 09:09:22;;;;;;;2.53;1.40;;;;;;;13.18;74.60;97840.78;8348804;28;20702;-80
2020/12/23 09:13:30;;;;;;;3.07;1.27;;;;;;;13.10;74.04;97843.81;8345923;28;20236;-80
2020/12/23 09:17:31;;;;;;;1.73;1.00;;;;;;;13.19;74.36;97843.25;8344643;28;20210;-80
2020/12/23 09:21:33;;;;;;;5.33;2.50;;;;;;;12.97;75.30;97832.44;8344045;28;20216;-79
2020/12/23 09:25:36;;;;;;;2.30;1.33;;;;;;;12.80;75.01;97836.78;8345298;28;20200;-80
2020/12/23 09:29:42;;;;;;;3.57;1.10;;;;;;;12.94;74.34;97837.78;8343032;28;20208;-79
2020/12/23 09:33:43;;;;;;;4.10;1.57;;;;;;;12.94;74.58;97840.38;8342778;28;20224;-81
2020/12/23 09:37:47;;;;;;;2.57;1.47;;;;;;;12.98;74.58;97834.09;8344938;28;20205;-80
2020/12/23 09:41:59;;;;;;;3.67;1.87;;;;;;;13.06;74.30;97832.75;8344212;28;20208;-79
2020/12/23 09:46:04;;;;;;;3.73;1.53;;;;;;;13.00;74.27;97827.03;8340912;28;20571;-80
2020/12/23 09:50:06;;;;;;;3.60;1.90;;;;;;;12.96;75.11;97828.97;8339938;28;20673;-77
2020/12/23 09:54:08;;;;;;;1.20;1.07;;;;;;;12.74;75.59;97816.34;8336365;28;20232;-78
2020/12/23 09:58:12;;;;;;;1.43;1.10;;;;;;;12.77;75.47;97817.94;8334979;28;20214;-78
2020/12/23 10:02:13;;;;;;;1.50;1.10;;;;;;;12.74;75.81;97808.56;8333980;28;20209;-78
2020/12/23 10:06:15;;;;;;;1.67;1.57;;;;;;;12.79;75.71;97803.09;8333987;28;20212;-77
2020/12/23 10:10:17;;;;;;;3.93;1.90;;;;;;;12.75;76.08;97797.22;8333008;28;20200;-77
2020/12/23 10:14:19;;;;;;;1.60;1.50;;;;;;;12.55;76.25;97781.94;8332234;28;20244;-77
2020/12/23 10:18:24;;;;;;;2.13;1.67;;;;;;;12.46;76.37;97783.25;8332903;28;20713;-77
2020/12/23 10:22:26;;;;;;;2.10;1.90;;;;;;;12.45;77.57;97766.84;8333073;28;20204;-77
2020/12/23 10:26:28;;;;;;;3.00;2.63;;;;;;;12.45;76.79;97761.66;8333303;28;20200;-77
2020/12/23 10:30:30;;;;;;;2.23;2.03;;;;;;;12.55;76.72;97761.16;8333520;28;20231;-77
2020/12/23 10:34:44;;;;;;;2.40;2.20;;;;;;;12.55;76.42;97750.75;8333965;28;20220;-78
2020/12/23 10:38:47;;;;;;;2.60;2.40;;;;;;;12.37;76.66;97744.81;8333657;28;20258;-78
2020/12/23 10:42:49;;;;;;;3.43;3.13;;;;;;;12.69;76.07;97738.66;8332861;28;20212;-78
2020/12/23 10:46:56;;;;;;;4.40;2.90;;;;;;;12.64;76.31;97726.84;8332229;28;20648;-78
2020/12/23 10:50:58;;;;;;;3.20;2.50;;;;;;;12.70;76.20;97724.75;8332314;28;20248;-78
2020/12/23 10:54:59;;;;;;;7.67;2.07;;;;;;;13.08;78.33;97720.88;8335610;28;20232;-79
2020/12/23 10:59:01;;;;;;;4.10;2.53;;;;;;;12.84;76.09;97717.91;8347136;28;20224;-79
2020/12/23 11:03:04;;;;;;;3.90;2.30;;;;;;;12.53;77.85;97696.28;8344845;28;20203;-79
2020/12/23 11:07:06;;;;;;;3.77;1.67;;;;;;;13.40;75.43;97708.59;8343786;28;20196;-79
2020/12/23 11:11:08;;;;;;;3.53;1.90;;;;;;;13.65;72.95;97704.50;8344553;28;20212;-79
2020/12/23 11:15:10;;;;;;;3.83;2.30;;;;;;;13.34;74.81;97697.72;8340057;28;20211;-78
2020/12/23 11:19:12;;;;;;;3.70;2.90;;;;;;;13.33;74.69;97677.81;8331830;28;20216;-78
2020/12/23 11:23:23;;;;;;;3.47;2.53;;;;;;;13.53;74.40;97684.44;8330589;28;20578;-78
2020/12/23 11:27:25;;;;;;;4.77;3.10;;;;;;;13.39;74.78;97672.28;8331300;28;20211;-78
2020/12/23 11:31:27;;;;;;;4.10;3.60;;;;;;;13.30;75.42;97668.44;8338112;28;20290;-78
2020/12/23 11:35:29;;;;;;;6.97;5.80;;;;;;;13.36;75.33;97660.28;8338097;28;20212;-78
2020/12/23 11:39:31;;;;;;;10.00;5.20;;;;;;;13.60;74.93;97649.31;8338540;28;20295;-78
2020/12/23 11:43:33;;;;;;;10.87;6.57;;;;;;;13.59;75.29;97652.84;8347123;28;20578;-79
2020/12/23 11:47:34;;;;;;;7.93;4.80;;;;;;;13.62;74.62;97656.09;8348955;28;20204;-79
2020/12/23 11:51:37;;;;;;;4.37;2.67;;;;;;;13.46;74.94;97655.34;8352066;28;20239;-80
2020/12/23 11:55:39;;;;;;;6.33;3.23;;;;;;;13.54;75.72;97632.31;8315126;28;20550;-83
2020/12/23 11:59:40;;;;;;;7.00;2.80;;;;;;;14.09;74.40;97617.59;8336180;28;20223;-80
2020/12/23 12:03:42;;;;;;;6.73;4.13;;;;;;;14.05;74.61;97603.09;8345873;28;20207;-80
2020/12/23 12:07:45;;;;;;;5.10;3.30;;;;;;;14.02;75.21;97614.53;8345890;28;20195;-79
2020/12/23 12:11:46;;;;;;;10.70;3.30;;;;;;;14.35;75.43;97610.69;8348322;28;20547;-80
2020/12/23 12:15:48;;;;;;;5.17;3.50;;;;;;;14.12;74.65;97606.16;8347453;28;20208;-79
2020/12/23 12:19:50;;;;;;;5.33;4.47;;;;;;;14.17;74.02;97604.91;8347829;28;20562;-79
2020/12/23 12:23:52;;;;;;;6.63;4.30;;;;;;;13.99;74.80;97598.28;8346908;28;20213;-79
2020/12/23 12:27:54;;;;;;;5.33;3.80;;;;;;;14.00;74.85;97592.97;8348802;28;20216;-79
2020/12/23 12:31:56;;;;;;;3.23;2.70;;;;;;;14.02;74.88;97591.13;8350422;28;20227;-80
2020/12/23 12:35:58;;;;;;;5.57;3.10;;;;;;;14.02;74.58;97593.72;8348017;28;20212;-79
2020/12/23 12:40:01;;;;;;;3.90;3.03;;;;;;;14.16;74.32;97587.59;8347548;28;20212;-79
2020/12/23 12:44:02;;;;;;;3.50;2.70;;;;;;;14.17;74.38;97589.28;8347190;28;20204;-81
2020/12/23 12:48:05;;;;;;;3.77;2.80;;;;;;;14.14;74.50;97586.88;8346762;28;20213;-81
2020/12/23 12:52:07;;;;;;;6.50;3.10;;;;;;;14.07;74.44;97580.41;8349640;28;20231;-81
2020/12/23 12:56:10;;;;;;;4.50;3.30;;;;;;;14.10;74.79;97564.56;8351710;28;20200;-81
2020/12/23 13:00:12;;;;;;;4.77;3.60;;;;;;;14.08;74.57;97567.28;8350137;28;20205;-82
2020/12/23 13:04:14;;;;;;;6.73;3.70;;;;;;;14.05;74.65;97556.22;8351416;28;20215;-82
2020/12/23 13:08:15;;;;;;;5.17;3.60;;;;;;;13.99;74.83;97564.44;8355371;28;20208;-82
2020/12/23 13:12:18;;;;;;;3.30;3.00;;;;;;;14.08;74.92;97551.66;8363909;28;20240;-82
2020/12/23 13:16:20;;;;;;;7.30;3.20;;;;;;;14.04;74.80;97550.19;8355999;28;20215;-81
2020/12/23 13:20:21;;;;;;;3.10;2.73;;;;;;;14.03;74.86;97543.31;8347405;28;20632;-82
2020/12/23 13:24:23;;;;;;;4.03;3.30;;;;;;;13.91;75.37;97540.69;8343905;28;20220;-82
2020/12/23 13:28:27;;;;;;;3.90;2.80;;;;;;;13.82;76.32;97542.09;8345804;28;20204;-82
2020/12/23 13:32:28;;;;;;;5.87;3.13;;;;;;;13.75;75.88;97531.25;8347927;28;20224;-82
2020/12/23 13:36:30;;;;;;;5.00;3.00;;;;;;;13.87;75.93;97537.44;8343076;28;20200;-79
2020/12/23 13:40:32;;;;;;;9.00;3.10;;;;;;;13.72;76.40;97526.25;8342232;28;20228;-79
2020/12/23 13:44:35;;;;;;;4.17;3.03;;;;;;;13.86;76.25;97518.38;8336947;28;20204;-77
2020/12/23 13:48:37;;;;;;;4.77;2.80;;;;;;;13.89;75.75;97518.16;8338002;28;20209;-78
2020/12/23 13:52:38;;;;;;;3.93;2.70;;;;;;;14.08;75.10;97514.38;8333600;28;20563;-77
2020/12/23 13:56:40;;;;;;;4.93;3.67;;;;;;;13.92;75.37;97503.28;8342266;28;20311;-79
2020/12/23 14:00:43;;;;;;;4.70;3.17;;;;;;;13.89;75.30;97502.56;8340201;28;20564;-80
2020/12/23 14:04:44;;;;;;;4.57;3.60;;;;;;;13.78;75.46;97499.81;8334205;28;20231;-77
2020/12/23 14:08:46;;;;;;;4.30;3.10;;;;;;;13.82;75.45;97500.44;8334464;28;20208;-77
2020/12/23 14:12:49;;;;;;;4.00;2.90;;;;;;;13.78;75.19;97502.41;8333318;28;20236;-77
2020/12/23 14:16:54;;;;;;;5.77;3.50;;;;;;;13.75;75.88;97497.44;8333186;28;20653;-78
2020/12/23 14:20:56;;;;;;;6.93;4.33;;;;;;;13.60;76.47;97496.63;8333381;28;20196;-77
2020/12/23 14:24:58;;;;;;;6.73;3.63;;;;;;;13.69;75.72;97493.44;8332950;28;20223;-77
2020/12/23 14:28:59;;;;;;;5.47;3.03;;;;;;;13.57;75.72;97485.59;8332994;28;20211;-77
2020/12/23 14:33:02;;;;;;;6.87;4.90;;;;;;;13.63;75.68;97480.84;8332727;28;20255;-77
2020/12/23 14:37:04;;;;;;;5.37;4.60;;;;;;;13.64;75.98;97479.06;8332349;28;20223;-77
2020/12/23 14:41:06;;;;;;;20.13;9.27;;;;;;;13.68;76.48;97483.13;8332415;28;20200;-77
2020/12/23 14:45:07;;;;;;;13.37;11.97;;;;;;;13.43;76.11;97468.28;8332454;28;20208;-76
2020/12/23 14:49:10;;;;;;;11.73;10.40;;;;;;;13.38;76.50;97462.53;8332638;28;20204;-77
2020/12/23 14:53:12;;;;;;;6.13;5.07;;;;;;;13.51;76.09;97468.59;8331968;28;20231;-77
2020/12/23 14:57:13;;;;;;;6.20;4.17;;;;;;;13.48;76.29;97466.22;8332664;28;20215;-76
2020/12/23 15:01:15;;;;;;;4.33;3.93;;;;;;;13.43;76.34;97471.69;8332521;28;20678;-78
2020/12/23 15:05:18;;;;;;;5.13;3.90;;;;;;;13.49;76.15;97460.06;8331857;28;20208;-77
2020/12/23 15:09:20;;;;;;;5.77;3.43;;;;;;;13.40;76.48;97463.25;8332206;28;20231;-77
2020/12/23 15:13:21;;;;;;;4.90;3.37;;;;;;;13.38;76.06;97450.34;8332259;28;20251;-77
2020/12/23 15:17:23;;;;;;;4.90;3.10;;;;;;;13.44;76.52;97455.19;8331476;28;20207;-76
2020/12/23 15:21:26;;;;;;;4.23;3.20;;;;;;;13.46;76.30;97448.09;8331902;28;20212;-77
2020/12/23 15:25:28;;;;;;;5.07;3.40;;;;;;;13.46;75.83;97445.50;8331523;28;20229;-77
2020/12/23 15:29:30;;;;;;;6.27;4.17;;;;;;;13.50;76.21;97443.53;8331464;28;20703;-76
2020/12/23 15:33:32;;;;;;;6.93;5.93;;;;;;;13.44;76.11;97441.31;8332003;28;20684;-77
2020/12/23 15:37:35;;;;;;;4.13;3.20;;;;;;;13.41;76.25;97441.53;8331735;28;20648;-77
2020/12/23 15:41:36;;;;;;;5.07;3.43;;;;;;;13.42;75.86;97431.03;8332602;28;20223;-77
2020/12/23 15:45:38;;;;;;;4.53;3.40;;;;;;;13.37;75.85;97427.88;8331340;28;20220;-77
2020/12/23 15:49:40;;;;;;;3.87;3.07;;;;;;;13.43;75.93;97426.66;8330486;28;20205;-77
2020/12/23 15:53:42;;;;;;;4.90;3.40;;;;;;;13.35;76.23;97418.53;8330939;28;20220;-77
2020/12/23 15:57:44;;;;;;;5.57;3.73;;;;;;;13.39;75.62;97412.19;8331297;28;20207;-77
2020/12/23 16:01:48;;;;;;;3.03;2.73;;;;;;;13.38;75.91;97423.50;8331039;28;20200;-77
2020/12/23 16:05:50;;;;;;;4.07;2.70;;;;;;;13.45;75.43;97411.78;8331084;28;20258;-77
2020/12/23 16:09:53;;;;;;;5.73;3.80;;;;;;;13.45;75.22;97409.19;8331508;28;20200;-77
2020/12/23 16:13:54;;;;;;;4.13;2.53;;;;;;;13.42;75.59;97414.56;8330786;28;20720;-77
2020/12/23 16:17:57;;;;;;;4.33;2.93;;;;;;;13.40;75.34;97408.63;8335552;28;20205;-77
2020/12/23 16:21:59;;;;;;;4.77;2.57;;;;;;;13.42;74.96;97398.97;8337026;28;20283;-77
2020/12/23 16:26:01;;;;;;;4.97;2.43;;;;;;;13.40;75.15;97387.84;8336812;28;20204;-77
2020/12/23 16:30:03;;;;;;;4.10;2.90;;;;;;;13.36;75.03;97388.97;8336880;28;20559;-77
2020/12/23 16:34:05;;;;;;;4.43;2.80;;;;;;;13.28;75.05;97399.84;8337539;28;20703;-77
2020/12/23 16:38:11;;;;;;;5.90;3.40;;;;;;;13.38;74.74;97384.50;8336057;28;20212;-77
2020/12/23 16:42:13;;;;;;;5.07;3.23;;;;;;;13.37;74.37;97393.25;8336473;28;20204;-77
2020/12/23 16:46:15;;;;;;;4.80;3.70;;;;;;;13.29;74.62;97391.94;8338330;28;20224;-77
2020/12/23 16:50:17;;;;;;;6.93;3.60;;;;;;;13.22;74.96;97393.25;8328525;28;20225;-77
2020/12/23 16:54:19;;;;;;;4.57;2.80;;;;;;;13.28;74.21;97390.25;8334347;28;20228;-78
2020/12/23 16:58:21;;;;;;;4.63;3.60;;;;;;;13.23;74.73;97396.69;8336330;28;20236;-77
2020/12/23 17:02:24;;;;;;;4.80;3.83;;;;;;;13.28;74.50;97403.25;8336078;28;20220;-78
2020/12/23 17:06:25;;;;;;;7.90;3.60;;;;;;;13.21;74.57;97402.00;8336629;28;20209;-78
2020/12/23 17:10:27;;;;;;;3.40;2.60;;;;;;;13.20;74.66;97395.13;8336820;28;20205;-78
2020/12/23 17:14:30;;;;;;;3.33;2.63;;;;;;;13.20;74.91;97400.34;8336303;28;20235;-77
2020/12/23 17:18:32;;;;;;;2.97;2.73;;;;;;;13.06;75.30;97385.63;8336189;28;20208;-77
2020/12/23 17:22:33;;;;;;;4.47;2.90;;;;;;;13.06;75.34;97385.63;8335820;28;20225;-77
2020/12/23 17:26:36;;;;;;;5.30;3.50;;;;;;;13.11;75.49;97383.53;8335342;28;20226;-78
2020/12/23 17:30:38;;;;;;;4.00;3.03;;;;;;;13.10;74.83;97386.25;8335541;28;20231;-77
2020/12/23 17:34:40;;;;;;;3.93;2.50;;;;;;;13.11;75.02;97387.91;8335942;28;20228;-78
2020/12/23 17:38:41;;;;;;;2.37;2.13;;;;;;;13.17;74.58;97386.69;8336675;28;20637;-78
2020/12/23 17:42:44;;;;;;;3.00;2.37;;;;;;;13.18;74.48;97388.38;8336899;28;20247;-77
2020/12/23 17:46:53;;;;;;;7.37;4.97;;;;;;;13.20;74.56;97382.13;8334422;28;20201;-78
2020/12/23 17:50:54;;;;;;;3.67;2.43;;;;;;;13.08;74.16;97373.34;8336163;28;20196;-79
2020/12/23 17:54:56;;;;;;;3.40;2.00;;;;;;;13.21;74.11;97389.00;8338601;28;20235;-79
2020/12/23 17:58:58;;;;;;;2.80;2.50;;;;;;;13.30;74.14;97387.59;8330295;28;20224;-80
2020/12/23 18:03:00;;;;;;;2.60;2.07;;;;;;;13.14;74.26;97384.31;8303705;28;20209;-78
2020/12/23 18:07:06;;;;;;;5.80;4.73;;;;;;;13.13;74.25;97386.03;8304749;28;20197;-78
2020/12/23 18:11:08;;;;;;;5.87;4.90;;;;;;;13.16;73.71;97380.66;8329542;28;20224;-78
2020/12/23 18:15:10;;;;;;;3.07;2.33;;;;;;;13.33;73.73;97409.97;8335422;28;20216;-78
2020/12/23 18:19:13;;;;;;;8.20;5.90;;;;;;;13.13;73.89;97400.81;8339127;28;20227;-79
2020/12/23 18:23:14;;;;;;;5.37;4.70;;;;;;;13.25;73.90;97405.22;8338444;28;20652;-78
2020/12/23 18:27:16;;;;;;;6.07;4.30;;;;;;;13.20;74.27;97415.94;8339566;28;20544;-78
2020/12/23 18:31:18;;;;;;;3.33;1.80;;;;;;;13.17;74.45;97417.88;8331549;28;20227;-77
2020/12/23 18:35:21;;;;;;;8.03;4.10;;;;;;;13.26;73.92;97423.34;8333128;28;20224;-77
2020/12/23 18:39:23;;;;;;;6.67;4.33;;;;;;;13.32;73.73;97429.94;8332079;28;20671;-77
2020/12/23 18:43:25;;;;;;;5.13;3.40;;;;;;;13.29;73.67;97430.13;8332663;28;20204;-78
2020/12/23 18:47:27;;;;;;;3.17;2.30;;;;;;;13.20;73.54;97435.91;8332617;28;20211;-77
2020/12/23 18:51:29;;;;;;;4.27;2.47;;;;;;;13.18;74.21;97429.97;8334453;28;20205;-78
2020/12/23 18:55:31;;;;;;;3.90;3.03;;;;;;;13.23;73.99;97439.16;8329059;28;20252;-77
2020/12/23 18:59:33;;;;;;;2.40;2.17;;;;;;;13.16;74.07;97432.66;8301773;28;20641;-77
2020/12/23 19:03:35;;;;;;;6.03;4.90;;;;;;;13.18;73.73;97438.59;8300900;28;20225;-77